createdAt,value
2017-07-19T00:01:38.498Z,10.70
2017-07-19T00:06:40.233Z,6.63
2017-07-19T00:11:42.711Z,8.00
2017-07-19T00:16:44.452Z,9.93
2017-07-19T00:21:46.247Z,14.13
2017-07-19T00:26:47.979Z,8.97
2017-07-19T00:31:49.700Z,10.27
2017-07-19T00:36:51.407Z,7.53
2017-07-19T00:41:53.874Z,18.17
2017-07-19T00:46:55.570Z,10.10
2017-07-19T00:51:57.291Z,10.83
2017-07-19T00:56:59.006Z,12.30
2017-07-19T01:02:01.090Z,5.13
2017-07-19T01:07:03.349Z,8.00
2017-07-19T01:12:05.558Z,15.13
2017-07-19T01:17:07.584Z,14.03
2017-07-19T01:22:10.657Z,12.33
2017-07-19T01:27:13.769Z,12.43
2017-07-19T01:32:15.511Z,14.47
2017-07-19T01:37:17.233Z,9.17
2017-07-19T01:42:19.737Z,10.33
2017-07-19T01:47:21.494Z,9.83
2017-07-19T01:52:23.209Z,16.93
2017-07-19T01:57:24.967Z,13.10
2017-07-19T02:02:26.691Z,16.77
2017-07-19T02:07:28.463Z,13.07
2017-07-19T02:12:30.190Z,8.90
2017-07-19T02:17:31.905Z,12.27
2017-07-19T02:22:33.610Z,14.97
2017-07-19T02:27:35.339Z,13.03
2017-07-19T02:32:37.049Z,7.90
2017-07-19T02:37:38.766Z,19.60
2017-07-19T02:42:40.503Z,16.17
2017-07-19T02:47:42.222Z,16.77
2017-07-19T02:52:44.650Z,13.63
2017-07-19T02:57:46.369Z,15.37
2017-07-19T03:02:48.067Z,8.57
2017-07-19T03:07:50.527Z,18.03
2017-07-19T03:12:52.991Z,18.30
2017-07-19T03:17:55.438Z,9.27
2017-07-19T03:22:57.895Z,15.80
2017-07-19T03:27:59.594Z,14.33
2017-07-19T03:33:07.500Z,13.20
2017-07-19T03:38:09.273Z,12.23
2017-07-19T03:43:11.834Z,10.80
2017-07-19T03:48:13.671Z,9.50
2017-07-19T03:53:16.509Z,10.73
2017-07-19T03:58:18.264Z,15.03
2017-07-19T04:03:20.005Z,17.17
2017-07-19T04:08:21.718Z,13.73
2017-07-19T04:13:23.451Z,12.00
2017-07-19T04:18:25.175Z,11.60
2017-07-19T04:23:26.979Z,11.20
2017-07-19T04:28:28.801Z,10.00
2017-07-19T04:33:30.521Z,12.30
2017-07-19T04:38:32.426Z,11.33
2017-07-19T04:43:34.185Z,9.63
2017-07-19T04:48:35.886Z,10.27
2017-07-19T04:53:37.642Z,13.27
2017-07-19T04:58:39.362Z,15.00
2017-07-19T05:03:41.096Z,11.30
2017-07-19T05:08:42.800Z,8.67
2017-07-19T05:13:44.514Z,12.70
2017-07-19T05:18:46.972Z,10.67
2017-07-19T05:23:49.443Z,9.73
2017-07-19T05:28:51.902Z,13.37
2017-07-19T05:33:53.638Z,11.37
2017-07-19T05:38:55.394Z,10.53
2017-07-19T05:43:57.090Z,10.40
2017-07-19T05:48:58.838Z,11.40
2017-07-19T05:54:00.553Z,6.93
2017-07-19T05:59:02.296Z,10.57
2017-07-19T06:04:04.024Z,9.23
2017-07-19T06:09:05.757Z,11.47
2017-07-19T06:14:07.475Z,10.60
2017-07-19T06:19:09.951Z,9.63
2017-07-19T06:24:11.682Z,15.40
2017-07-19T06:29:13.396Z,10.17
2017-07-19T06:34:16.158Z,5.53
2017-07-19T06:39:20.306Z,11.90
2017-07-19T06:44:22.504Z,7.90
2017-07-19T06:49:24.231Z,14.37
2017-07-19T06:54:31.258Z,9.33
2017-07-19T06:59:36.370Z,6.30
2017-07-19T07:04:39.766Z,8.30
2017-07-19T07:09:44.045Z,8.97
2017-07-19T07:14:49.203Z,7.27
2017-07-19T07:19:51.116Z,10.40
2017-07-19T07:24:55.344Z,5.70
2017-07-19T07:30:03.343Z,8.23
2017-07-19T07:35:05.786Z,10.80
2017-07-19T07:40:07.846Z,9.77
2017-07-19T07:45:09.587Z,18.43
2017-07-19T07:50:11.339Z,6.40
2017-07-19T07:55:13.064Z,11.80
2017-07-19T08:00:15.153Z,7.43
2017-07-19T08:05:17.606Z,15.03
2017-07-19T08:10:19.322Z,6.87
2017-07-19T08:15:21.034Z,12.97
2017-07-19T08:20:22.766Z,8.93
2017-07-19T08:25:24.510Z,9.00
2017-07-19T08:30:26.267Z,8.20
2017-07-19T08:35:27.974Z,5.47
2017-07-19T08:40:29.703Z,6.77
2017-07-19T08:45:31.405Z,11.37
2017-07-19T08:50:33.244Z,8.50
2017-07-19T08:55:34.975Z,8.37
2017-07-19T09:00:37.497Z,7.63
2017-07-19T09:05:40.332Z,8.83
2017-07-19T09:10:42.078Z,8.10
2017-07-19T09:15:43.835Z,7.07
2017-07-19T09:20:45.654Z,8.73
2017-07-19T09:25:47.371Z,5.60
2017-07-19T09:30:49.338Z,8.07
2017-07-19T09:35:51.055Z,10.17
2017-07-19T09:40:52.762Z,9.53
2017-07-19T09:45:55.246Z,8.63
2017-07-19T09:50:56.974Z,9.20
2017-07-19T09:55:58.700Z,10.10
2017-07-19T10:01:00.491Z,16.13
2017-07-19T10:06:03.339Z,13.63
2017-07-19T10:11:05.104Z,7.03
2017-07-19T10:16:06.991Z,17.10
2017-07-19T10:21:08.726Z,14.73
2017-07-19T10:26:10.463Z,14.20
2017-07-19T10:31:12.207Z,9.47
2017-07-19T10:36:14.031Z,10.73
2017-07-19T10:41:15.758Z,14.30
2017-07-19T10:46:17.491Z,9.20
2017-07-19T10:51:19.218Z,15.80
2017-07-19T10:56:21.704Z,14.60
2017-07-19T11:01:23.427Z,12.93
2017-07-19T11:06:25.159Z,9.40
2017-07-19T11:11:27.616Z,17.53
2017-07-19T11:16:29.342Z,8.00
2017-07-19T11:21:32.286Z,12.40
2017-07-19T11:26:37.090Z,8.93
2017-07-19T11:31:38.962Z,21.67
2017-07-19T11:36:40.711Z,8.43
2017-07-19T11:41:44.735Z,9.83
2017-07-19T11:46:46.545Z,9.20
2017-07-19T11:51:48.255Z,8.17
2017-07-19T11:56:49.951Z,7.47
2017-07-19T12:01:54.304Z,17.03
2017-07-19T12:06:59.303Z,14.40
2017-07-19T12:12:01.028Z,6.33
2017-07-19T12:17:02.817Z,7.97
2017-07-19T12:22:04.588Z,6.57
2017-07-19T12:27:06.330Z,11.07
2017-07-19T12:32:08.055Z,13.30
2017-07-19T12:37:10.089Z,6.30
2017-07-19T12:42:12.872Z,9.73
2017-07-19T12:47:15.050Z,15.33
2017-07-19T12:52:17.219Z,7.50
2017-07-19T12:57:19.848Z,12.37
2017-07-19T13:02:21.799Z,28.00
2017-07-19T13:07:23.788Z,16.73
2017-07-19T13:12:25.793Z,6.73
2017-07-19T13:17:27.608Z,7.60
2017-07-19T13:22:29.648Z,7.03
2017-07-19T13:27:35.651Z,17.73
2017-07-19T13:32:38.423Z,7.30
2017-07-19T13:37:40.247Z,19.33
2017-07-19T13:42:41.983Z,9.60
2017-07-19T13:47:43.771Z,6.07
2017-07-19T13:52:45.515Z,9.50
2017-07-19T13:57:47.271Z,11.10
2017-07-19T14:02:49.031Z,10.60
2017-07-19T14:07:50.797Z,7.80
2017-07-19T14:12:53.246Z,5.90
2017-07-19T14:17:55.831Z,5.83
2017-07-19T14:22:57.567Z,9.40
2017-07-19T14:27:59.296Z,5.23
2017-07-19T14:33:01.030Z,5.63
2017-07-19T14:38:03.845Z,6.50
2017-07-19T14:43:05.939Z,6.60
2017-07-19T14:48:08.019Z,19.83
2017-07-19T14:53:09.734Z,5.73
2017-07-19T14:58:12.264Z,17.97
2017-07-19T15:03:14.003Z,5.90
2017-07-19T15:08:15.732Z,19.63
2017-07-19T15:13:17.503Z,10.70
2017-07-19T15:18:19.224Z,7.97
2017-07-19T15:23:20.939Z,6.40
2017-07-19T15:28:22.646Z,7.00
2017-07-19T15:33:24.460Z,10.10
2017-07-19T15:38:26.224Z,6.87
2017-07-19T15:43:27.952Z,13.40
2017-07-19T15:48:29.649Z,13.23
2017-07-19T15:53:31.393Z,6.60
2017-07-19T15:58:33.185Z,20.27
2017-07-19T16:03:34.952Z,7.63
2017-07-19T16:08:37.427Z,7.70
2017-07-19T16:13:39.268Z,11.30
2017-07-19T16:18:43.403Z,10.30
2017-07-19T16:23:46.398Z,12.40
2017-07-19T16:28:48.118Z,8.80
2017-07-19T16:33:49.844Z,18.90
2017-07-19T16:38:51.957Z,10.10
2017-07-19T16:43:53.869Z,11.20
2017-07-19T16:48:55.829Z,10.30
2017-07-19T16:53:57.867Z,13.23
2017-07-19T16:58:59.715Z,40.30
2017-07-19T17:04:01.435Z,41.47
2017-07-19T17:09:03.322Z,41.93
2017-07-19T17:14:05.282Z,23.87
2017-07-19T17:19:08.184Z,45.50
2017-07-19T17:24:10.833Z,28.87
2017-07-19T17:29:12.784Z,18.27
2017-07-19T17:34:18.402Z,23.00
2017-07-19T17:39:23.968Z,23.57
2017-07-19T17:44:25.865Z,23.60
2017-07-19T17:49:28.682Z,17.17
2017-07-19T17:54:30.405Z,16.40
2017-07-19T17:59:32.147Z,27.50
2017-07-19T18:04:34.678Z,22.30
2017-07-19T18:09:39.098Z,21.13
2017-07-19T18:14:41.833Z,20.57
2017-07-19T18:19:45.900Z,18.27
2017-07-19T18:24:49.093Z,24.10
2017-07-19T18:29:50.863Z,17.07
2017-07-19T18:35:01.465Z,22.03
2017-07-19T18:40:09.219Z,20.03
2017-07-19T18:45:11.003Z,15.13
2017-07-19T18:50:12.797Z,15.50
2017-07-19T18:55:14.602Z,18.93
2017-07-19T19:00:17.378Z,37.20
2017-07-19T19:05:19.106Z,16.53
2017-07-19T19:10:31.664Z,16.97
2017-07-19T19:15:33.440Z,24.20
2017-07-19T19:20:35.239Z,22.30
2017-07-19T19:25:36.974Z,22.83
2017-07-19T19:30:38.725Z,21.73
2017-07-19T19:35:40.457Z,19.90
2017-07-19T19:40:42.199Z,25.67
2017-07-19T19:45:43.985Z,18.77
2017-07-19T19:50:45.783Z,22.73
2017-07-19T19:55:47.542Z,19.57
2017-07-19T20:00:49.329Z,28.03
2017-07-19T20:05:51.048Z,24.33
2017-07-19T20:10:54.402Z,20.90
2017-07-19T20:15:56.132Z,21.07
2017-07-19T20:20:58.611Z,28.60
2017-07-19T20:26:00.343Z,30.73
2017-07-19T20:31:02.838Z,35.93
2017-07-19T20:36:04.579Z,20.40
2017-07-19T20:41:06.308Z,17.47
2017-07-19T20:46:08.060Z,29.97
2017-07-19T20:51:09.813Z,22.43
2017-07-19T20:56:11.545Z,24.70
2017-07-19T21:01:13.269Z,38.13
2017-07-19T21:06:15.020Z,37.30
2017-07-19T21:11:16.751Z,40.67
2017-07-19T21:16:18.480Z,20.53
2017-07-19T21:21:20.261Z,18.63
2017-07-19T21:26:21.995Z,26.03
2017-07-19T21:31:23.711Z,28.43
2017-07-19T21:36:25.424Z,17.60
2017-07-19T21:41:27.153Z,28.40
2017-07-19T21:46:28.862Z,23.93
2017-07-19T21:51:30.590Z,26.47
2017-07-19T21:56:32.307Z,38.67
2017-07-19T22:01:34.123Z,28.47
2017-07-19T22:06:35.881Z,30.27
2017-07-19T22:11:37.651Z,24.60
2017-07-19T22:16:39.438Z,22.20
2017-07-19T22:21:41.170Z,23.27
2017-07-19T22:26:42.898Z,18.73
2017-07-19T22:31:44.635Z,36.50
2017-07-19T22:36:46.363Z,24.60
2017-07-19T22:41:48.069Z,25.17
2017-07-19T22:46:49.819Z,27.13
2017-07-19T22:51:51.675Z,38.63
2017-07-19T22:56:54.165Z,27.20
2017-07-19T23:01:55.898Z,27.23
2017-07-19T23:06:57.622Z,26.60
2017-07-19T23:11:59.346Z,23.17
2017-07-19T23:17:01.067Z,19.80
2017-07-19T23:22:02.820Z,31.10
2017-07-19T23:27:04.671Z,25.33
2017-07-19T23:32:06.374Z,23.37
2017-07-19T23:37:08.108Z,23.13
2017-07-19T23:42:10.108Z,31.70
2017-07-19T23:47:12.165Z,30.87
2017-07-19T23:52:14.622Z,24.20
2017-07-19T23:57:17.055Z,26.27
